createdAt,value
2018-03-29T00:00:08.248Z,-3.35
2018-03-29T00:02:35.847Z,-3.41
2018-03-29T00:05:03.458Z,-3.44
2018-03-29T00:07:31.485Z,-3.44
2018-03-29T00:09:59.700Z,-3.47
2018-03-29T00:12:27.286Z,-3.48
2018-03-29T00:14:54.866Z,-3.51
2018-03-29T00:17:24.315Z,-3.54
2018-03-29T00:19:52.482Z,-3.55
2018-03-29T00:22:20.065Z,-3.58
2018-03-29T00:24:48.393Z,-3.60
2018-03-29T00:27:15.945Z,-3.61
2018-03-29T00:29:44.810Z,-3.61
2018-03-29T00:32:13.251Z,-3.62
2018-03-29T00:34:40.869Z,-3.63
2018-03-29T00:37:08.450Z,-3.67
2018-03-29T00:39:36.033Z,-3.70
2018-03-29T00:42:03.645Z,-3.72
2018-03-29T00:44:31.239Z,-3.73
2018-03-29T00:46:58.873Z,-3.73
2018-03-29T00:49:26.502Z,-3.74
2018-03-29T00:51:54.687Z,-3.76
2018-03-29T00:54:22.432Z,-3.79
2018-03-29T00:56:50.034Z,-3.81
2018-03-29T00:59:18.143Z,-3.83
2018-03-29T01:01:46.336Z,-3.85
2018-03-29T01:04:14.020Z,-3.91
2018-03-29T01:06:42.537Z,-3.93
2018-03-29T01:09:10.893Z,-3.98
2018-03-29T01:11:38.484Z,-4.00
2018-03-29T01:14:06.046Z,-4.03
2018-03-29T01:16:33.668Z,-4.06
2018-03-29T01:19:02.572Z,-4.09
2018-03-29T01:21:30.152Z,-4.09
2018-03-29T01:23:58.307Z,-4.10
2018-03-29T01:26:25.867Z,-4.08
2018-03-29T01:28:53.453Z,-4.06
2018-03-29T01:31:21.541Z,-4.06
2018-03-29T01:33:49.083Z,-4.09
2018-03-29T01:36:16.654Z,-4.14
2018-03-29T01:38:44.258Z,-4.22
2018-03-29T01:41:12.591Z,-4.29
2018-03-29T01:43:40.142Z,-4.33
2018-03-29T01:46:07.782Z,-4.34
2018-03-29T01:48:35.345Z,-4.35
2018-03-29T01:51:03.600Z,-4.36
2018-03-29T01:53:31.184Z,-4.37
2018-03-29T01:55:58.785Z,-4.35
2018-03-29T01:58:27.137Z,-4.34
2018-03-29T02:00:55.256Z,-4.32
2018-03-29T02:03:23.050Z,-4.29
2018-03-29T02:05:51.192Z,-4.28
2018-03-29T02:08:19.325Z,-4.27
2018-03-29T02:10:47.457Z,-4.28
2018-03-29T02:13:15.021Z,-4.30
2018-03-29T02:15:43.095Z,-4.31
2018-03-29T02:18:11.456Z,-4.33
2018-03-29T02:20:39.307Z,-4.36
2018-03-29T02:23:07.445Z,-4.38
2018-03-29T02:25:35.026Z,-4.41
2018-03-29T02:28:02.647Z,-4.43
2018-03-29T02:30:30.577Z,-4.44
2018-03-29T02:32:58.142Z,-4.50
2018-03-29T02:35:25.687Z,-4.54
2018-03-29T02:37:53.489Z,-4.57
2018-03-29T02:40:21.049Z,-4.62
2018-03-29T02:42:48.615Z,-4.63
2018-03-29T02:45:16.254Z,-4.64
2018-03-29T02:47:44.589Z,-4.65
2018-03-29T02:50:13.534Z,-4.66
2018-03-29T02:52:41.130Z,-4.69
2018-03-29T02:55:08.679Z,-4.70
2018-03-29T02:57:36.266Z,-4.70
2018-03-29T03:00:04.889Z,-4.70
2018-03-29T03:02:33.126Z,-4.69
2018-03-29T03:05:01.245Z,-4.70
2018-03-29T03:07:28.821Z,-4.71
2018-03-29T03:09:57.132Z,-4.73
2018-03-29T03:12:24.809Z,-4.74
2018-03-29T03:14:52.474Z,-4.74
2018-03-29T03:17:20.736Z,-4.76
2018-03-29T03:19:48.857Z,-4.76
2018-03-29T03:22:16.410Z,-4.78
2018-03-29T03:24:44.632Z,-4.79
2018-03-29T03:27:12.524Z,-4.79
2018-03-29T03:29:41.642Z,-4.80
2018-03-29T03:32:09.214Z,-4.81
2018-03-29T03:34:36.773Z,-4.83
2018-03-29T03:37:04.418Z,-4.83
2018-03-29T03:39:31.971Z,-4.85
2018-03-29T03:41:59.546Z,-4.86
2018-03-29T03:44:27.133Z,-4.84
2018-03-29T03:46:54.693Z,-4.84
2018-03-29T03:49:22.461Z,-4.84
2018-03-29T03:51:51.315Z,-4.84
2018-03-29T03:54:18.897Z,-4.86
2018-03-29T03:56:46.445Z,-4.87
2018-03-29T03:59:15.012Z,-4.87
2018-03-29T04:01:43.589Z,-4.86
2018-03-29T04:04:12.057Z,-4.85
2018-03-29T04:06:39.659Z,-4.83
2018-03-29T04:09:08.332Z,-4.80
2018-03-29T04:11:35.897Z,-4.79
2018-03-29T04:14:03.483Z,-4.77
2018-03-29T04:16:31.062Z,-4.76
2018-03-29T04:18:59.217Z,-4.74
2018-03-29T04:21:26.764Z,-4.74
2018-03-29T04:23:54.981Z,-4.73
2018-03-29T04:26:23.625Z,-4.72
2018-03-29T04:28:51.843Z,-4.71
2018-03-29T04:31:25.377Z,-4.71
2018-03-29T04:33:53.094Z,-4.70
2018-03-29T04:36:20.663Z,-4.68
2018-03-29T04:38:48.280Z,-4.66
2018-03-29T04:41:15.829Z,-4.63
2018-03-29T04:43:43.730Z,-4.56
2018-03-29T04:46:12.446Z,-4.51
2018-03-29T04:48:40.004Z,-4.47
2018-03-29T04:51:08.284Z,-4.43
2018-03-29T04:53:35.898Z,-4.37
2018-03-29T04:56:03.539Z,-4.32
2018-03-29T04:58:31.719Z,-4.28
2018-03-29T05:00:59.991Z,-4.24
2018-03-29T05:03:28.395Z,-4.20
2018-03-29T05:05:55.993Z,-4.17
2018-03-29T05:08:24.828Z,-4.13
2018-03-29T05:10:52.454Z,-4.08
2018-03-29T05:13:20.136Z,-4.04
2018-03-29T05:15:47.818Z,-3.98
2018-03-29T05:18:16.105Z,-3.94
2018-03-29T05:20:44.680Z,-3.90
2018-03-29T05:23:13.633Z,-3.86
2018-03-29T05:25:42.426Z,-3.81
2018-03-29T05:28:10.072Z,-3.78
2018-03-29T05:30:38.697Z,-3.72
2018-03-29T05:33:06.326Z,-3.67
2018-03-29T05:35:33.944Z,-3.61
2018-03-29T05:38:01.601Z,-3.53
2018-03-29T05:40:29.268Z,-3.44
2018-03-29T05:42:57.025Z,-3.35
2018-03-29T05:45:25.507Z,-3.26
2018-03-29T05:47:53.876Z,-3.15
2018-03-29T05:50:22.456Z,-3.07
2018-03-29T05:52:50.320Z,-2.97
2018-03-29T05:55:19.132Z,-2.87
2018-03-29T05:57:46.744Z,-2.78
2018-03-29T06:00:15.039Z,-2.70
2018-03-29T06:02:45.878Z,-2.59
2018-03-29T06:05:14.363Z,-2.50
2018-03-29T06:07:42.386Z,-2.40
2018-03-29T06:10:10.831Z,-2.31
2018-03-29T06:12:38.669Z,-2.20
2018-03-29T06:15:12.033Z,-2.13
2018-03-29T06:17:43.182Z,-2.04
2018-03-29T06:20:13.505Z,-1.99
2018-03-29T06:22:43.425Z,-1.95
2018-03-29T06:25:15.428Z,-1.87
2018-03-29T06:27:43.415Z,-1.77
2018-03-29T06:30:12.199Z,-1.71
2018-03-29T06:32:39.827Z,-1.64
2018-03-29T06:35:07.676Z,-1.52
2018-03-29T06:37:35.753Z,-1.43
2018-03-29T06:40:03.719Z,-1.32
2018-03-29T06:42:31.896Z,-1.25
2018-03-29T06:44:59.758Z,-1.22
2018-03-29T06:47:27.723Z,-1.15
2018-03-29T06:49:56.727Z,-1.03
2018-03-29T06:52:24.796Z,-0.93
2018-03-29T06:54:53.415Z,-0.84
2018-03-29T06:57:21.183Z,-0.77
2018-03-29T06:59:49.635Z,-0.70
2018-03-29T07:02:17.483Z,-0.61
2018-03-29T07:04:46.092Z,-0.53
2018-03-29T07:07:13.960Z,-0.40
2018-03-29T07:09:42.626Z,-0.27
2018-03-29T07:12:10.342Z,-0.15
2018-03-29T07:14:38.002Z,-0.04
2018-03-29T07:17:06.226Z,0.07
2018-03-29T07:19:34.698Z,0.20
2018-03-29T07:22:02.496Z,0.36
2018-03-29T07:24:31.089Z,0.49
2018-03-29T07:26:58.778Z,0.58
2018-03-29T07:29:27.095Z,0.63
2018-03-29T07:31:55.061Z,0.71
2018-03-29T07:34:23.393Z,0.82
2018-03-29T07:36:51.531Z,0.94
2018-03-29T07:39:19.091Z,1.08
2018-03-29T07:41:46.715Z,1.18
2018-03-29T07:44:14.344Z,1.20
2018-03-29T07:46:41.971Z,1.30
2018-03-29T07:49:09.642Z,1.42
2018-03-29T07:51:37.857Z,1.50
2018-03-29T07:54:05.544Z,1.54
2018-03-29T07:56:33.171Z,1.60
2018-03-29T07:59:01.420Z,1.67
2018-03-29T08:01:29.825Z,1.78
2018-03-29T08:03:58.001Z,1.87
2018-03-29T08:06:25.577Z,1.94
2018-03-29T08:08:53.627Z,1.93
2018-03-29T08:11:21.272Z,1.82
2018-03-29T08:13:48.859Z,1.92
2018-03-29T08:16:16.446Z,2.06
2018-03-29T08:18:44.754Z,2.30
2018-03-29T08:21:12.869Z,2.44
2018-03-29T08:23:43.340Z,2.43
2018-03-29T08:26:10.944Z,2.38
2018-03-29T08:28:38.501Z,2.58
2018-03-29T08:31:06.638Z,2.67
2018-03-29T08:33:34.225Z,2.67
2018-03-29T08:36:01.756Z,2.76
2018-03-29T08:38:29.605Z,2.73
2018-03-29T08:40:57.146Z,2.83
2018-03-29T08:43:24.781Z,2.78
2018-03-29T08:45:52.508Z,2.81
2018-03-29T08:48:20.563Z,2.83
2018-03-29T08:50:48.620Z,2.83
2018-03-29T08:53:16.144Z,2.90
2018-03-29T08:55:44.030Z,2.95
2018-03-29T08:58:11.747Z,3.10
2018-03-29T09:00:41.045Z,3.22
2018-03-29T09:03:09.637Z,3.25
2018-03-29T09:05:37.225Z,3.29
2018-03-29T09:08:04.761Z,3.25
2018-03-29T09:10:33.283Z,3.32
2018-03-29T09:13:00.858Z,3.29
2018-03-29T09:15:28.455Z,3.27
2018-03-29T09:17:56.903Z,3.34
2018-03-29T09:20:25.066Z,3.28
2018-03-29T09:22:52.642Z,3.16
2018-03-29T09:25:20.208Z,3.10
2018-03-29T09:27:47.785Z,3.21
2018-03-29T09:30:16.145Z,3.48
2018-03-29T09:32:44.506Z,3.67
2018-03-29T09:35:12.742Z,3.80
2018-03-29T09:37:40.316Z,3.94
2018-03-29T09:40:07.850Z,3.92
2018-03-29T09:42:35.372Z,4.06
2018-03-29T09:45:03.036Z,4.01
2018-03-29T09:47:31.193Z,3.93
2018-03-29T09:49:59.550Z,4.11
2018-03-29T09:52:27.084Z,4.30
2018-03-29T09:54:55.621Z,4.37
2018-03-29T09:57:23.736Z,4.45
2018-03-29T09:59:51.915Z,4.55
2018-03-29T10:02:19.960Z,4.74
2018-03-29T10:04:53.873Z,5.00
2018-03-29T10:07:24.335Z,5.30
2018-03-29T10:09:52.378Z,5.48
2018-03-29T10:12:19.932Z,5.62
2018-03-29T10:14:47.480Z,5.63
2018-03-29T10:17:16.008Z,5.68
2018-03-29T10:19:44.488Z,5.54
2018-03-29T10:22:13.387Z,5.18
2018-03-29T10:24:40.916Z,4.87
2018-03-29T10:27:08.487Z,4.64
2018-03-29T10:29:36.904Z,4.44
2018-03-29T10:32:04.436Z,4.41
2018-03-29T10:34:31.956Z,4.44
2018-03-29T10:36:59.516Z,4.51
2018-03-29T10:39:27.048Z,4.74
2018-03-29T10:41:55.007Z,4.90
2018-03-29T10:44:23.392Z,4.94
2018-03-29T10:46:50.958Z,4.98
2018-03-29T10:49:18.477Z,5.00
2018-03-29T10:51:46.745Z,5.02
2018-03-29T10:54:14.285Z,5.17
2018-03-29T10:56:42.386Z,5.26
2018-03-29T10:59:10.881Z,5.25
2018-03-29T11:01:39.063Z,5.22
2018-03-29T11:04:07.185Z,5.00
2018-03-29T11:06:34.720Z,4.70
2018-03-29T11:09:03.260Z,4.50
2018-03-29T11:11:30.823Z,4.43
2018-03-29T11:13:58.353Z,4.46
2018-03-29T11:16:25.933Z,4.55
2018-03-29T11:18:54.116Z,4.61
2018-03-29T11:21:22.423Z,4.57
2018-03-29T11:23:49.952Z,4.48
2018-03-29T11:26:17.484Z,4.50
2018-03-29T11:28:45.045Z,4.52
2018-03-29T11:31:13.987Z,4.53
2018-03-29T11:33:41.555Z,4.63
2018-03-29T11:36:09.140Z,4.60
2018-03-29T11:38:36.696Z,4.54
2018-03-29T11:41:04.744Z,4.52
2018-03-29T11:43:32.292Z,4.41
2018-03-29T11:45:59.831Z,4.30
2018-03-29T11:48:27.431Z,4.19
2018-03-29T11:50:55.665Z,4.28
2018-03-29T11:53:23.410Z,4.25
2018-03-29T11:55:51.008Z,4.34
2018-03-29T11:58:19.452Z,4.48
2018-03-29T12:00:47.673Z,4.56
2018-03-29T12:03:15.998Z,4.58
2018-03-29T12:05:44.441Z,4.48
2018-03-29T12:08:12.647Z,4.31
2018-03-29T12:10:40.925Z,4.25
2018-03-29T12:13:08.542Z,4.33
2018-03-29T12:15:36.075Z,4.36
2018-03-29T12:18:05.318Z,4.44
2018-03-29T12:20:32.854Z,4.52
2018-03-29T12:23:01.108Z,4.52
2018-03-29T12:25:28.630Z,4.50
2018-03-29T12:27:56.154Z,4.41
2018-03-29T12:30:24.353Z,4.40
2018-03-29T12:32:52.997Z,4.43
2018-03-29T12:35:20.530Z,4.45
2018-03-29T12:37:48.109Z,4.40
2018-03-29T12:40:16.281Z,4.39
2018-03-29T12:42:43.861Z,4.38
2018-03-29T12:45:11.718Z,4.33
2018-03-29T12:50:06.299Z,4.37
2018-03-29T12:52:33.890Z,4.31
2018-03-29T12:55:13.318Z,4.34
2018-03-29T12:57:53.049Z,4.37
2018-03-29T13:00:21.235Z,4.29
2018-03-29T13:02:49.812Z,4.37
2018-03-29T13:05:17.382Z,4.38
2018-03-29T13:07:44.929Z,4.40
2018-03-29T13:10:12.900Z,4.29
2018-03-29T13:12:40.534Z,4.16
2018-03-29T13:15:08.101Z,4.04
2018-03-29T13:17:36.607Z,4.03
2018-03-29T13:20:04.670Z,4.08
2018-03-29T13:26:03.087Z,3.92
2018-03-29T13:28:31.397Z,3.94
2018-03-29T13:30:59.398Z,3.82
2018-03-29T13:33:26.968Z,3.83
2018-03-29T13:35:54.620Z,3.79
2018-03-29T13:38:23.433Z,3.77
2018-03-29T13:40:50.964Z,3.73
2018-03-29T13:43:18.560Z,3.73
2018-03-29T13:45:46.228Z,3.75
2018-03-29T13:48:13.923Z,3.72
2018-03-29T13:50:42.364Z,3.66
2018-03-29T13:53:09.923Z,3.65
2018-03-29T13:55:37.470Z,3.63
2018-03-29T13:58:05.038Z,3.63
2018-03-29T14:00:33.366Z,3.65
2018-03-29T14:03:01.598Z,3.65
2018-03-29T14:05:29.202Z,3.67
2018-03-29T14:07:56.755Z,3.71
2018-03-29T14:10:24.882Z,3.65
2018-03-29T14:12:52.478Z,3.63
2018-03-29T14:15:20.031Z,3.62
2018-03-29T14:17:48.091Z,3.67
2018-03-29T14:20:16.432Z,3.71
2018-03-29T14:22:44.680Z,3.64
2018-03-29T14:25:13.430Z,3.62
2018-03-29T14:27:40.969Z,3.58
2018-03-29T14:30:09.302Z,3.57
2018-03-29T14:32:37.736Z,3.58
2018-03-29T14:35:06.008Z,3.57
2018-03-29T14:37:33.563Z,3.66
2018-03-29T14:40:01.124Z,3.77
2018-03-29T14:42:28.706Z,3.83
2018-03-29T14:44:56.262Z,3.88
2018-03-29T14:47:24.068Z,3.97
2018-03-29T14:49:52.437Z,3.90
2018-03-29T14:52:20.054Z,3.80
2018-03-29T14:54:47.614Z,3.85
2018-03-29T14:57:15.194Z,3.84
2018-03-29T14:59:44.456Z,3.85
2018-03-29T15:02:12.897Z,3.78
2018-03-29T15:04:41.003Z,3.61
2018-03-29T15:07:08.574Z,3.47
2018-03-29T15:09:36.849Z,3.42
2018-03-29T15:12:04.441Z,3.36
2018-03-29T15:14:32.003Z,3.29
2018-03-29T15:17:01.052Z,3.26
2018-03-29T15:19:29.420Z,3.14
2018-03-29T15:21:57.754Z,3.07
2018-03-29T15:24:25.740Z,3.17
2018-03-29T15:26:53.589Z,3.30
2018-03-29T15:29:21.897Z,3.33
2018-03-29T15:31:50.219Z,3.40
2018-03-29T15:34:17.777Z,3.46
2018-03-29T15:36:45.360Z,3.53
2018-03-29T15:39:13.642Z,3.58
2018-03-29T15:41:43.153Z,3.60
2018-03-29T15:44:10.752Z,3.61
2018-03-29T15:46:38.368Z,3.62
2018-03-29T15:49:05.959Z,3.60
2018-03-29T15:51:34.074Z,3.49
2018-03-29T15:54:01.632Z,3.51
2018-03-29T15:56:29.189Z,3.51
2018-03-29T15:58:57.492Z,3.51
2018-03-29T16:01:25.783Z,3.58
2018-03-29T16:03:54.550Z,3.66
2018-03-29T16:06:22.094Z,3.71
2018-03-29T16:08:50.767Z,3.79
2018-03-29T16:11:18.314Z,3.89
2018-03-29T16:13:46.028Z,4.03
2018-03-29T16:16:14.266Z,4.10
2018-03-29T16:18:42.979Z,4.24
2018-03-29T16:21:10.513Z,4.24
2018-03-29T16:23:38.849Z,4.27
2018-03-29T16:26:06.386Z,4.29
2018-03-29T16:28:33.916Z,4.20
2018-03-29T16:31:01.849Z,4.04
2018-03-29T16:33:29.409Z,3.76
2018-03-29T16:35:57.051Z,3.58
2018-03-29T16:38:24.684Z,3.39
2018-03-29T16:40:52.558Z,3.18
2018-03-29T16:43:20.143Z,3.08
2018-03-29T16:45:47.742Z,2.95
2018-03-29T16:48:16.488Z,2.76
2018-03-29T16:50:44.425Z,2.65
2018-03-29T16:53:12.205Z,2.60
2018-03-29T16:55:39.809Z,2.40
2018-03-29T16:58:07.447Z,2.24
2018-03-29T17:00:35.976Z,2.06
2018-03-29T17:03:04.442Z,1.87
2018-03-29T17:05:32.072Z,1.73
2018-03-29T17:07:59.671Z,1.63
2018-03-29T17:10:28.922Z,1.52
2018-03-29T17:12:56.630Z,1.42
2018-03-29T17:15:24.789Z,1.34
2018-03-29T17:17:54.211Z,1.24
2018-03-29T17:20:23.740Z,1.17
2018-03-29T17:22:51.785Z,1.10
2018-03-29T17:25:19.416Z,1.01
2018-03-29T17:27:47.725Z,0.93
2018-03-29T17:30:15.868Z,0.86
2018-03-29T17:32:43.756Z,0.82
2018-03-29T17:35:11.568Z,0.75
2018-03-29T17:37:39.157Z,0.71
2018-03-29T17:40:06.741Z,0.64
2018-03-29T17:42:34.392Z,0.58
2018-03-29T17:45:02.025Z,0.54
2018-03-29T17:47:29.610Z,0.49
2018-03-29T17:49:57.914Z,0.45
2018-03-29T17:52:25.500Z,0.41
2018-03-29T17:54:54.928Z,0.39
2018-03-29T17:57:22.782Z,0.33
2018-03-29T17:59:51.100Z,0.31
2018-03-29T18:02:19.261Z,0.28
2018-03-29T18:04:47.448Z,0.26
2018-03-29T18:07:15.000Z,0.22
2018-03-29T18:09:43.433Z,0.19
2018-03-29T18:12:11.062Z,0.16
2018-03-29T18:14:38.680Z,0.14
2018-03-29T18:17:07.343Z,0.11
2018-03-29T18:19:35.757Z,0.09
2018-03-29T18:22:04.103Z,0.08
2018-03-29T18:24:32.376Z,0.05
2018-03-29T18:27:00.109Z,0.02
2018-03-29T18:29:28.321Z,-0.01
2018-03-29T18:31:55.961Z,-0.04
2018-03-29T18:34:23.516Z,-0.05
2018-03-29T18:36:51.130Z,-0.07
2018-03-29T18:39:18.680Z,-0.10
2018-03-29T18:41:46.688Z,-0.12
2018-03-29T18:44:14.302Z,-0.14
2018-03-29T18:46:42.487Z,-0.15
2018-03-29T18:49:10.132Z,-0.18
2018-03-29T18:51:38.504Z,-0.21
2018-03-29T18:54:06.156Z,-0.21
2018-03-29T18:56:33.865Z,-0.23
2018-03-29T18:59:02.166Z,-0.25
2018-03-29T19:01:31.224Z,-0.25
2018-03-29T19:03:59.882Z,-0.27
2018-03-29T19:06:27.667Z,-0.29
2018-03-29T19:08:55.465Z,-0.32
2018-03-29T19:11:23.287Z,-0.34
2018-03-29T19:13:50.989Z,-0.35
2018-03-29T19:16:18.599Z,-0.37
2018-03-29T19:18:47.022Z,-0.39
2018-03-29T19:21:14.718Z,-0.42
2018-03-29T19:23:43.905Z,-0.42
2018-03-29T19:26:12.531Z,-0.44
2018-03-29T19:28:41.850Z,-0.47
2018-03-29T19:31:09.897Z,-0.49
2018-03-29T19:33:37.497Z,-0.51
2018-03-29T19:36:05.093Z,-0.54
2018-03-29T19:38:32.732Z,-0.57
2018-03-29T19:41:00.290Z,-0.59
2018-03-29T19:43:27.886Z,-0.63
2018-03-29T19:45:55.598Z,-0.65
2018-03-29T19:48:24.564Z,-0.67
2018-03-29T19:50:57.646Z,-0.68
2018-03-29T19:53:25.589Z,-0.69
2018-03-29T19:55:53.816Z,-0.72
2018-03-29T19:58:22.141Z,-0.74
2018-03-29T20:00:50.526Z,-0.76
2018-03-29T20:03:18.796Z,-0.78
2018-03-29T20:05:46.471Z,-0.81
2018-03-29T20:08:14.333Z,-0.82
2018-03-29T20:10:42.429Z,-0.84
2018-03-29T20:13:10.082Z,-0.88
2018-03-29T20:15:37.682Z,-0.91
2018-03-29T20:18:05.792Z,-0.92
2018-03-29T20:20:33.925Z,-0.95
2018-03-29T20:23:02.223Z,-0.98
2018-03-29T20:25:29.882Z,-1.00
2018-03-29T20:27:57.585Z,-1.03
2018-03-29T20:30:25.659Z,-1.04
2018-03-29T20:32:53.330Z,-1.05
2018-03-29T20:35:20.970Z,-1.05
2018-03-29T20:37:49.486Z,-1.07
2018-03-29T20:40:17.160Z,-1.09
2018-03-29T20:42:44.894Z,-1.09
2018-03-29T20:45:13.216Z,-1.11
2018-03-29T20:47:40.826Z,-1.13
2018-03-29T20:50:09.063Z,-1.13
2018-03-29T20:52:36.919Z,-1.15
2018-03-29T20:55:04.583Z,-1.16
2018-03-29T20:57:32.278Z,-1.16
2018-03-29T21:00:00.384Z,-1.19
2018-03-29T21:02:28.188Z,-1.21
2018-03-29T21:04:56.691Z,-1.23
2018-03-29T21:07:25.014Z,-1.22
2018-03-29T21:09:53.093Z,-1.24
2018-03-29T21:12:20.853Z,-1.25
2018-03-29T21:14:48.676Z,-1.25
2018-03-29T21:17:17.278Z,-1.27
2018-03-29T21:19:45.558Z,-1.27
2018-03-29T21:22:14.166Z,-1.28
2018-03-29T21:24:44.803Z,-1.30
2018-03-29T21:27:13.116Z,-1.32
2018-03-29T21:29:43.197Z,-1.32
2018-03-29T21:32:12.893Z,-1.36
2018-03-29T21:34:40.657Z,-1.38
2018-03-29T21:37:08.357Z,-1.40
2018-03-29T21:39:36.116Z,-1.43
2018-03-29T21:42:03.770Z,-1.47
2018-03-29T21:44:31.468Z,-1.50
2018-03-29T21:46:59.105Z,-1.53
2018-03-29T21:49:27.232Z,-1.57
2018-03-29T21:51:57.728Z,-1.61
2018-03-29T21:54:25.462Z,-1.62
2018-03-29T21:56:53.362Z,-1.65
2018-03-29T21:59:22.671Z,-1.67
2018-03-29T22:01:51.004Z,-1.68
2018-03-29T22:04:19.247Z,-1.72
2018-03-29T22:06:46.956Z,-1.74
2018-03-29T22:09:14.668Z,-1.76
2018-03-29T22:11:42.716Z,-1.77
2018-03-29T22:14:10.438Z,-1.79
2018-03-29T22:16:38.913Z,-1.79
2018-03-29T22:19:07.043Z,-1.80
2018-03-29T22:21:35.931Z,-1.79
2018-03-29T22:24:04.245Z,-1.78
2018-03-29T22:26:31.926Z,-1.79
2018-03-29T22:29:00.358Z,-1.77
2018-03-29T22:31:28.029Z,-1.79
2018-03-29T22:33:55.699Z,-1.80
2018-03-29T22:36:23.524Z,-1.81
2018-03-29T22:38:51.118Z,-1.80
2018-03-29T22:41:18.718Z,-1.81
2018-03-29T22:43:46.482Z,-1.83
2018-03-29T22:46:14.245Z,-1.83
2018-03-29T22:48:42.899Z,-1.86
2018-03-29T22:51:11.111Z,-1.89
2018-03-29T22:53:39.213Z,-1.89
2018-03-29T22:56:06.877Z,-1.89
2018-03-29T22:58:35.145Z,-1.89
2018-03-29T23:01:03.423Z,-1.91
2018-03-29T23:03:31.506Z,-1.92
2018-03-29T23:05:59.140Z,-1.92
2018-03-29T23:08:26.718Z,-1.95
2018-03-29T23:10:54.703Z,-1.98
2018-03-29T23:13:23.387Z,-1.99
2018-03-29T23:15:50.996Z,-1.99
2018-03-29T23:18:19.356Z,-2.00
2018-03-29T23:20:46.948Z,-2.02
2018-03-29T23:23:15.334Z,-2.04
2018-03-29T23:25:45.670Z,-2.02
2018-03-29T23:28:13.840Z,-2.02
2018-03-29T23:30:42.301Z,-2.04
2018-03-29T23:33:09.881Z,-2.05
2018-03-29T23:35:37.561Z,-2.05
2018-03-29T23:38:05.279Z,-2.09
2018-03-29T23:40:32.901Z,-2.12
2018-03-29T23:43:00.533Z,-2.15
2018-03-29T23:45:28.192Z,-2.15
2018-03-29T23:47:55.858Z,-2.17
2018-03-29T23:50:24.880Z,-2.17
2018-03-29T23:52:52.539Z,-2.17
2018-03-29T23:55:20.175Z,-2.19
2018-03-29T23:57:47.833Z,-2.19
